Time;durP1;ratioP1;P1;durP2;ratioP2;P2;SDS_P1;SDS_P2;PMS_P1;PMS_P2;Temp;Humidity;BMP_temperature;BMP_pressure;BME280_temperature;BME280_humidity;BME280_pressure;Samples;Min_cycle;Max_cycle;Signal;HPM_P1;HPM_P2
2023/07/31 00:01:30;;;;;;;9.80;7.03;;;15.90;99.90;;;;;;5029121;28;20918;-81
2023/07/31 00:03:56;;;;;;;10.97;7.33;;;15.80;99.90;;;;;;5041075;28;20930;-81
2023/07/31 00:06:22;;;;;;;11.27;7.47;;;15.80;99.90;;;;;;5075940;28;20480;-81
2023/07/31 00:08:47;;;;;;;8.63;7.30;;;15.80;99.90;;;;;;5042462;28;20867;-81
2023/07/31 00:11:13;;;;;;;9.73;7.77;;;15.90;99.90;;;;;;5060051;28;22061;-80
2023/07/31 00:13:39;;;;;;;9.93;7.70;;;15.90;99.90;;;;;;5044566;28;20476;-80
2023/07/31 00:16:05;;;;;;;9.75;8.07;;;15.90;99.90;;;;;;5057668;28;20937;-80
2023/07/31 00:18:30;;;;;;;12.75;8.57;;;15.90;99.90;;;;;;5063861;28;20423;-80
2023/07/31 00:20:56;;;;;;;12.68;8.18;;;15.90;99.90;;;;;;5055922;28;20483;-81
2023/07/31 00:23:22;;;;;;;10.23;8.07;;;15.70;99.90;;;;;;5054998;28;20420;-80
2023/07/31 00:25:47;;;;;;;9.85;7.60;;;15.70;99.90;;;;;;5045336;28;20455;-80
2023/07/31 00:28:13;;;;;;;10.25;8.00;;;15.80;99.90;;;;;;5055324;28;20444;-79
2023/07/31 00:30:39;;;;;;;9.68;7.45;;;15.90;99.90;;;;;;5066439;28;20982;-80
2023/07/31 00:33:05;;;;;;;9.75;7.50;;;15.90;99.90;;;;;;5065087;28;20808;-79
2023/07/31 00:35:30;;;;;;;8.75;7.20;;;16.00;99.90;;;;;;5043161;28;20507;-80
2023/07/31 00:37:58;;;;;;;9.40;7.10;;;15.80;99.90;;;;;;5055053;28;20752;-80
2023/07/31 00:40:23;;;;;;;9.73;6.75;;;15.90;99.90;;;;;;5069916;28;20413;-80
2023/07/31 00:42:49;;;;;;;9.57;6.90;;;15.60;99.90;;;;;;5038369;28;20427;-80
2023/07/31 00:45:15;;;;;;;10.20;6.73;;;15.70;99.90;;;;;;5049548;28;20416;-81
2023/07/31 00:47:40;;;;;;;9.30;6.70;;;15.70;99.90;;;;;;5044620;28;20411;-80
2023/07/31 00:50:07;;;;;;;9.02;6.90;;;15.70;99.90;;;;;;5026007;28;20407;-80
2023/07/31 00:52:33;;;;;;;10.60;7.32;;;15.80;99.90;;;;;;5065186;28;20405;-81
2023/07/31 00:54:59;;;;;;;10.75;7.35;;;15.60;99.90;;;;;;5075843;28;20497;-80
2023/07/31 00:57:25;;;;;;;9.07;7.28;;;15.70;99.90;;;;;;5071535;28;20433;-81
2023/07/31 00:59:51;;;;;;;9.60;7.33;;;15.60;99.90;;;;;;5055113;28;20485;-80
2023/07/31 01:02:17;;;;;;;11.68;7.40;;;15.70;99.90;;;;;;5054407;28;20493;-80
2023/07/31 01:04:43;;;;;;;12.00;7.82;;;15.90;99.90;;;;;;5071900;28;20952;-80
2023/07/31 01:07:39;;;;;;;12.75;7.70;;;15.80;99.90;;;;;;5073272;28;20475;-80
2023/07/31 01:10:20;;;;;;;11.32;7.15;;;15.70;99.90;;;;;;5053140;28;20427;-81
2023/07/31 01:12:47;;;;;;;8.80;6.22;;;15.50;99.90;;;;;;5057003;28;20401;-81
2023/07/31 01:15:14;;;;;;;8.95;5.93;;;15.60;99.90;;;;;;5057142;28;20479;-81
2023/07/31 01:17:42;;;;;;;8.50;5.38;;;15.70;99.90;;;;;;5058073;28;20915;-80
2023/07/31 01:20:23;;;;;;;7.47;4.85;;;15.70;99.90;;;;;;5061294;28;20573;-80
2023/07/31 01:23:07;;;;;;;6.40;4.20;;;15.80;99.90;;;;;;5061227;28;20505;-82
2023/07/31 01:26:11;;;;;;;5.68;4.10;;;15.80;99.90;;;;;;5060674;28;20443;-82
2023/07/31 01:28:52;;;;;;;6.05;4.30;;;15.70;99.90;;;;;;5038866;28;20439;-81
2023/07/31 01:31:23;;;;;;;5.55;4.40;;;15.70;99.90;;;;;;5057332;28;20402;-80
2023/07/31 01:33:52;;;;;;;7.43;4.17;;;15.40;99.90;;;;;;5072066;28;20750;-81
2023/07/31 01:36:18;;;;;;;7.38;4.30;;;15.80;99.90;;;;;;5038077;28;20908;-84
2023/07/31 01:38:44;;;;;;;6.70;4.22;;;15.40;99.90;;;;;;5051145;28;20421;-81
2023/07/31 01:41:09;;;;;;;5.50;3.90;;;15.50;99.90;;;;;;5073484;28;20425;-81
2023/07/31 01:43:35;;;;;;;6.47;4.20;;;15.70;99.90;;;;;;5049006;28;20419;-80
2023/07/31 01:46:01;;;;;;;5.38;4.00;;;15.50;99.90;;;;;;5056220;28;20442;-81
2023/07/31 01:48:26;;;;;;;6.13;4.40;;;15.70;99.90;;;;;;5067655;28;20479;-81
2023/07/31 01:50:52;;;;;;;5.17;3.90;;;15.70;99.90;;;;;;5030074;28;20415;-80
2023/07/31 01:53:18;;;;;;;5.67;3.60;;;15.70;99.90;;;;;;5048426;28;20862;-80
2023/07/31 01:55:43;;;;;;;5.30;3.60;;;15.60;99.90;;;;;;5033957;28;20417;-81
2023/07/31 01:58:09;;;;;;;4.20;3.20;;;15.60;99.90;;;;;;5053929;28;20414;-81
2023/07/31 02:00:35;;;;;;;4.43;3.05;;;15.70;99.90;;;;;;5073498;28;20466;-81
2023/07/31 02:03:01;;;;;;;5.18;2.50;;;16.00;99.90;;;;;;5060608;28;20422;-80
2023/07/31 02:05:26;;;;;;;3.70;2.57;;;15.60;99.90;;;;;;5040936;28;20402;-81
2023/07/31 02:07:52;;;;;;;5.18;2.90;;;15.60;99.90;;;;;;5073506;28;20413;-80
2023/07/31 02:10:18;;;;;;;3.60;2.55;;;15.80;99.90;;;;;;5055237;28;20536;-80
2023/07/31 02:12:43;;;;;;;3.50;2.63;;;15.60;99.90;;;;;;5069127;28;20422;-81
2023/07/31 02:15:10;;;;;;;5.30;2.70;;;;;;;;;;5057548;28;20402;-81
2023/07/31 02:17:35;;;;;;;4.32;2.78;;;15.50;99.90;;;;;;5075694;28;20493;-81
2023/07/31 02:20:01;;;;;;;6.77;2.77;;;15.70;99.90;;;;;;5074081;28;20519;-83
2023/07/31 02:22:27;;;;;;;5.20;2.87;;;15.90;99.90;;;;;;5049979;28;20421;-83
2023/07/31 02:24:52;;;;;;;3.97;2.50;;;15.50;99.90;;;;;;5056440;28;20489;-83
2023/07/31 02:27:18;;;;;;;4.15;2.33;;;15.80;99.90;;;;;;5065711;28;20430;-82
2023/07/31 02:29:44;;;;;;;3.70;2.20;;;15.80;99.90;;;;;;5055296;28;20805;-83
2023/07/31 02:32:10;;;;;;;3.63;2.37;;;15.50;99.90;;;;;;5058371;28;20593;-83
2023/07/31 02:34:35;;;;;;;3.50;2.33;;;15.60;99.90;;;;;;5057412;28;20423;-83
2023/07/31 02:37:01;;;;;;;3.65;2.30;;;15.50;99.90;;;;;;5057679;28;20494;-83
2023/07/31 02:39:26;;;;;;;4.07;2.40;;;15.40;99.90;;;;;;5047409;28;20467;-83
2023/07/31 02:41:52;;;;;;;5.17;2.70;;;15.40;99.90;;;;;;5064539;28;20417;-82
2023/07/31 02:44:18;;;;;;;5.05;2.88;;;15.70;99.90;;;;;;5072172;28;20498;-83
2023/07/31 02:46:43;;;;;;;3.95;2.70;;;15.70;99.90;;;;;;5070143;28;20422;-83
2023/07/31 02:49:09;;;;;;;4.70;2.70;;;15.70;99.90;;;;;;5044902;28;20922;-83
2023/07/31 02:51:35;;;;;;;3.80;2.60;;;15.50;99.90;;;;;;5068671;28;20471;-84
2023/07/31 02:54:00;;;;;;;5.65;2.80;;;15.60;99.90;;;;;;5057145;28;20421;-84
2023/07/31 02:56:26;;;;;;;4.00;2.70;;;15.80;99.90;;;;;;5073326;28;20411;-83
2023/07/31 02:58:52;;;;;;;4.40;2.90;;;15.80;99.90;;;;;;5040739;28;20404;-83
2023/07/31 03:01:17;;;;;;;4.30;2.47;;;15.70;99.90;;;;;;5043383;28;20476;-82
2023/07/31 03:03:43;;;;;;;3.60;2.28;;;15.80;99.90;;;;;;5052285;28;20846;-82
2023/07/31 03:06:09;;;;;;;4.40;2.10;;;15.70;99.90;;;;;;5057099;28;20418;-82
2023/07/31 03:08:34;;;;;;;4.73;2.30;;;15.90;99.90;;;;;;5058989;28;20446;-82
2023/07/31 03:11:00;;;;;;;4.03;2.63;;;15.80;99.90;;;;;;5060243;28;20505;-84
2023/07/31 03:13:26;;;;;;;3.40;2.00;;;16.00;99.90;;;;;;5075845;28;20534;-84
2023/07/31 03:15:51;;;;;;;3.38;2.00;;;15.70;99.90;;;;;;5064902;28;20463;-84
2023/07/31 03:18:17;;;;;;;3.70;2.20;;;15.60;99.90;;;;;;5072915;28;20424;-84
2023/07/31 03:20:44;;;;;;;4.43;2.20;;;15.90;99.90;;;;;;5038971;28;20418;-84
2023/07/31 03:23:09;;;;;;;3.05;2.00;;;16.00;99.90;;;;;;5041467;28;20778;-83
2023/07/31 03:25:35;;;;;;;3.08;1.90;;;15.80;99.90;;;;;;5062464;28;20421;-83
2023/07/31 03:28:01;;;;;;;3.17;2.00;;;15.80;99.90;;;;;;5040506;28;20415;-83
2023/07/31 03:30:26;;;;;;;3.87;1.60;;;15.90;99.90;;;;;;5063283;28;20452;-83
2023/07/31 03:32:52;;;;;;;2.97;1.70;;;15.80;99.90;;;;;;5075080;28;20436;-84
2023/07/31 03:35:18;;;;;;;3.25;1.75;;;15.70;99.90;;;;;;5075098;28;20432;-84
2023/07/31 03:37:44;;;;;;;4.00;2.03;;;15.80;99.90;;;;;;5062890;28;20429;-84
2023/07/31 03:40:10;;;;;;;4.67;2.03;;;15.80;99.90;;;;;;5072166;28;20962;-83
2023/07/31 03:42:35;;;;;;;4.53;2.00;;;15.70;99.90;;;;;;5074806;28;20446;-83
2023/07/31 03:45:01;;;;;;;3.72;2.00;;;15.90;99.90;;;;;;5076170;28;20428;-83
2023/07/31 03:47:27;;;;;;;3.20;1.87;;;15.80;99.90;;;;;;5058432;28;20435;-84
2023/07/31 03:49:53;;;;;;;3.70;1.90;;;16.00;99.90;;;;;;5054515;28;20850;-83
2023/07/31 03:52:18;;;;;;;4.32;2.10;;;15.80;99.90;;;;;;5060446;28;20544;-85
2023/07/31 03:54:46;;;;;;;4.05;2.20;;;16.10;99.90;;;;;;5069727;28;20456;-83
2023/07/31 03:57:12;;;;;;;4.80;2.50;;;15.90;99.90;;;;;;5053647;28;20446;-84
2023/07/31 03:59:40;;;;;;;5.18;2.55;;;15.80;99.90;;;;;;5076278;28;20413;-83
2023/07/31 04:02:06;;;;;;;4.85;2.58;;;16.00;99.90;;;;;;5074980;28;20429;-84
2023/07/31 04:04:32;;;;;;;4.43;2.60;;;15.90;99.90;;;;;;5075713;28;20394;-84
2023/07/31 04:06:58;;;;;;;4.13;2.30;;;15.70;99.90;;;;;;5054939;28;20457;-84
2023/07/31 04:09:23;;;;;;;3.65;2.15;;;15.70;99.90;;;;;;5071872;28;20421;-84
2023/07/31 04:11:49;;;;;;;3.40;2.20;;;16.00;99.90;;;;;;5071269;28;20497;-85
2023/07/31 04:14:15;;;;;;;3.20;2.20;;;15.80;99.90;;;;;;5059826;28;20405;-85
2023/07/31 04:16:40;;;;;;;4.30;2.50;;;15.80;99.90;;;;;;5076116;28;20401;-86
2023/07/31 04:19:06;;;;;;;3.92;2.40;;;15.90;99.90;;;;;;5059352;28;20472;-85
2023/07/31 04:21:32;;;;;;;5.40;2.40;;;15.80;99.90;;;;;;5075635;28;20406;-85
2023/07/31 04:23:58;;;;;;;7.17;2.60;;;15.90;99.90;;;;;;5074276;28;20429;-85
2023/07/31 04:26:24;;;;;;;4.80;2.50;;;15.80;99.90;;;;;;5076103;28;20461;-85
2023/07/31 04:28:49;;;;;;;4.07;2.30;;;15.80;99.90;;;;;;5075672;28;20479;-84
2023/07/31 04:31:15;;;;;;;3.33;2.10;;;15.80;99.90;;;;;;5058976;28;20897;-85
2023/07/31 04:33:41;;;;;;;4.13;2.13;;;15.70;99.90;;;;;;5066916;28;20424;-84
2023/07/31 04:36:06;;;;;;;3.53;2.20;;;15.80;99.90;;;;;;5065257;28;20511;-81
2023/07/31 04:38:32;;;;;;;5.03;2.60;;;15.80;99.90;;;;;;5063310;28;20479;-82
2023/07/31 04:40:58;;;;;;;4.13;2.80;;;15.60;99.90;;;;;;5058805;28;20465;-82
2023/07/31 04:43:23;;;;;;;5.68;3.30;;;15.50;99.90;;;;;;5077088;28;20429;-81
2023/07/31 04:45:50;;;;;;;5.72;3.53;;;15.80;99.90;;;;;;5057069;28;20402;-82
2023/07/31 04:48:16;;;;;;;7.65;3.47;;;15.80;99.90;;;;;;5047655;28;20452;-83
2023/07/31 04:50:41;;;;;;;6.90;3.30;;;16.00;99.90;;;;;;5056507;28;20419;-83
2023/07/31 04:53:07;;;;;;;8.70;3.60;;;15.70;99.90;;;;;;5055957;28;20406;-83
2023/07/31 04:55:33;;;;;;;6.30;3.10;;;15.70;99.90;;;;;;5067415;28;20549;-83
2023/07/31 04:57:59;;;;;;;8.35;3.40;;;15.90;99.90;;;;;;5051548;28;20409;-83
2023/07/31 05:00:24;;;;;;;8.13;3.10;;;15.70;99.90;;;;;;5076594;28;20506;-84
2023/07/31 05:02:50;;;;;;;5.00;2.70;;;15.70;99.90;;;;;;5072770;28;20478;-83
2023/07/31 05:05:16;;;;;;;5.87;2.63;;;16.00;99.90;;;;;;5064261;28;20505;-84
2023/07/31 05:07:42;;;;;;;8.23;3.00;;;16.00;99.90;;;;;;5059623;28;20428;-84
2023/07/31 05:10:08;;;;;;;5.57;2.72;;;16.00;99.90;;;;;;5062375;28;20486;-84
2023/07/31 05:12:33;;;;;;;6.97;2.90;;;16.10;99.90;;;;;;5072738;28;20413;-84
2023/07/31 05:14:59;;;;;;;5.15;3.00;;;16.00;99.90;;;;;;5053914;28;20420;-84
2023/07/31 05:17:25;;;;;;;8.00;3.50;;;16.20;99.90;;;;;;5039751;28;20415;-83
2023/07/31 05:19:50;;;;;;;8.80;4.00;;;15.70;99.90;;;;;;5057064;28;20419;-84
2023/07/31 05:22:18;;;;;;;9.90;4.10;;;15.90;99.90;;;;;;5057217;28;20424;-84
2023/07/31 05:24:44;;;;;;;9.50;4.32;;;16.00;99.90;;;;;;5042549;28;20421;-84
2023/07/31 05:27:10;;;;;;;10.88;5.07;;;16.10;99.90;;;;;;5075691;28;20727;-83
2023/07/31 05:29:36;;;;;;;11.85;4.88;;;15.90;99.90;;;;;;5072235;28;20422;-84
2023/07/31 05:32:01;;;;;;;10.77;5.07;;;16.10;99.90;;;;;;5070984;28;20496;-84
2023/07/31 05:34:27;;;;;;;13.50;5.10;;;16.00;99.90;;;;;;5042914;28;20911;-83
2023/07/31 05:36:53;;;;;;;13.23;5.17;;;16.00;99.90;;;;;;5070712;28;20422;-83
2023/07/31 05:39:19;;;;;;;12.60;5.47;;;16.20;99.90;;;;;;5073881;28;20397;-84
2023/07/31 05:41:45;;;;;;;14.52;5.78;;;16.20;99.90;;;;;;5040231;28;20390;-84
2023/07/31 05:44:11;;;;;;;14.60;5.75;;;15.90;99.90;;;;;;5070157;28;20775;-82
2023/07/31 05:46:37;;;;;;;17.80;6.82;;;16.00;99.90;;;;;;5069790;28;20444;-83
2023/07/31 05:49:02;;;;;;;20.43;7.57;;;16.30;99.90;;;;;;5040871;28;20424;-83
2023/07/31 05:51:28;;;;;;;22.47;7.93;;;16.10;99.90;;;;;;5057474;28;20394;-83
2023/07/31 05:53:54;;;;;;;22.13;7.80;;;16.30;99.90;;;;;;5063995;28;20403;-83
2023/07/31 05:56:19;;;;;;;23.48;8.60;;;16.20;99.90;;;;;;5046080;28;20926;-82
2023/07/31 05:58:45;;;;;;;27.42;8.98;;;16.40;99.90;;;;;;5065800;28;20514;-82
2023/07/31 06:01:11;;;;;;;26.40;8.77;;;16.20;99.90;;;;;;5069466;28;20479;-82
2023/07/31 06:03:36;;;;;;;28.37;9.07;;;16.40;99.90;;;;;;5067047;28;20428;-82
2023/07/31 06:06:02;;;;;;;32.47;10.25;;;16.30;99.90;;;;;;5051885;28;20444;-82
2023/07/31 06:08:28;;;;;;;29.98;10.55;;;16.60;99.90;;;;;;5066665;28;20468;-81
2023/07/31 06:10:53;;;;;;;34.30;10.87;;;16.50;99.90;;;;;;5040323;28;20414;-82
2023/07/31 06:13:19;;;;;;;32.63;10.40;;;16.70;99.90;;;;;;5042800;28;20470;-82
2023/07/31 06:15:45;;;;;;;32.08;9.90;;;17.10;99.90;;;;;;5055307;28;20429;-81
2023/07/31 06:18:10;;;;;;;33.35;10.40;;;17.00;99.90;;;;;;5064449;28;20522;-81
2023/07/31 06:20:36;;;;;;;31.98;10.38;;;16.80;99.90;;;;;;5043737;28;20426;-82
2023/07/31 06:23:03;;;;;;;28.50;9.80;;;16.90;99.90;;;;;;5058488;28;20427;-82
2023/07/31 06:25:29;;;;;;;32.83;9.77;;;17.00;99.90;;;;;;5066647;28;20414;-84
2023/07/31 06:27:55;;;;;;;27.00;9.37;;;17.30;99.90;;;;;;5053870;28;20886;-82
2023/07/31 06:30:20;;;;;;;25.95;8.82;;;17.00;99.90;;;;;;5054246;28;20406;-83
2023/07/31 06:32:46;;;;;;;29.40;9.40;;;16.90;99.90;;;;;;5070427;28;20495;-82
2023/07/31 06:35:12;;;;;;;24.25;8.75;;;17.00;99.90;;;;;;5058398;28;20443;-83
2023/07/31 06:37:40;;;;;;;26.20;8.73;;;17.10;99.90;;;;;;5067346;28;20420;-83
2023/07/31 06:40:08;;;;;;;27.05;9.10;;;17.20;99.90;;;;;;5067022;28;20445;-83
2023/07/31 06:42:35;;;;;;;25.42;8.93;;;17.40;99.90;;;;;;5063230;28;20939;-83
2023/07/31 06:45:01;;;;;;;25.27;8.65;;;17.60;99.90;;;;;;5068457;28;20426;-83
2023/07/31 06:47:27;;;;;;;26.67;9.25;;;17.70;99.90;;;;;;5036792;28;20428;-82
2023/07/31 06:49:52;;;;;;;25.17;9.98;;;17.70;99.90;;;;;;5036615;28;20822;-81
2023/07/31 06:52:19;;;;;;;26.83;9.55;;;17.50;99.90;;;;;;5047287;28;20479;-83
2023/07/31 06:54:59;;;;;;;26.67;9.93;;;17.80;99.90;;;;;;5047325;28;20913;-83
2023/07/31 06:57:25;;;;;;;25.35;9.45;;;17.30;99.90;;;;;;5061388;28;20509;-82
2023/07/31 06:59:51;;;;;;;29.27;9.03;;;17.30;99.90;;;;;;5048799;28;20551;-83
2023/07/31 07:02:16;;;;;;;22.97;8.63;;;17.10;99.90;;;;;;5069513;28;20418;-84
2023/07/31 07:04:42;;;;;;;21.42;8.43;;;17.30;99.90;;;;;;5052263;28;20417;-83
2023/07/31 07:07:08;;;;;;;24.98;9.60;;;17.00;99.90;;;;;;5070787;28;20421;-83
2023/07/31 07:09:33;;;;;;;25.77;9.50;;;17.50;99.90;;;;;;5067790;28;20413;-82
2023/07/31 07:11:59;;;;;;;23.83;8.32;;;17.40;99.90;;;;;;5047756;28;20907;-83
2023/07/31 07:14:25;;;;;;;23.42;8.25;;;17.10;99.90;;;;;;5060984;28;20417;-83
2023/07/31 07:16:51;;;;;;;23.52;7.97;;;17.00;99.90;;;;;;5070712;28;20429;-83
2023/07/31 07:19:17;;;;;;;20.20;7.77;;;17.20;99.90;;;;;;5074640;28;20417;-82
2023/07/31 07:21:43;;;;;;;18.03;5.90;;;17.10;99.90;;;;;;5056181;28;20439;-83
2023/07/31 07:24:09;;;;;;;15.10;5.85;;;16.90;99.90;;;;;;5050993;28;20431;-82
2023/07/31 07:26:34;;;;;;;15.48;5.10;;;17.00;99.90;;;;;;5057207;28;20437;-82
2023/07/31 07:29:02;;;;;;;11.32;4.25;;;16.90;99.90;;;;;;5054963;28;20429;-82
2023/07/31 07:31:28;;;;;;;9.55;4.10;;;17.00;99.90;;;;;;5059400;28;20418;-82
2023/07/31 07:33:54;;;;;;;11.02;3.72;;;16.90;99.90;;;;;;5045891;28;20571;-84
2023/07/31 07:36:20;;;;;;;11.40;4.07;;;16.90;99.90;;;;;;5050018;28;20421;-81
2023/07/31 07:38:45;;;;;;;8.33;3.70;;;16.90;99.90;;;;;;5075551;28;20491;-82
2023/07/31 07:41:11;;;;;;;7.50;3.35;;;16.90;99.90;;;;;;5054625;28;20527;-82
2023/07/31 07:43:37;;;;;;;8.15;3.80;;;16.80;99.90;;;;;;5013808;28;20421;-81
2023/07/31 07:46:02;;;;;;;7.03;3.33;;;16.80;99.90;;;;;;5040097;28;20503;-81
2023/07/31 07:48:28;;;;;;;6.33;3.17;;;16.60;99.90;;;;;;5074879;28;20444;-81
2023/07/31 07:50:54;;;;;;;5.93;2.95;;;17.00;99.90;;;;;;5059656;28;20468;-81
2023/07/31 07:53:19;;;;;;;8.25;3.30;;;16.90;99.90;;;;;;5056718;28;20404;-82
2023/07/31 07:55:45;;;;;;;5.07;2.75;;;17.20;99.90;;;;;;5064589;28;20598;-82
2023/07/31 07:58:11;;;;;;;5.47;2.63;;;17.00;99.90;;;;;;5046587;28;20456;-82
2023/07/31 08:00:37;;;;;;;5.93;2.70;;;16.80;99.90;;;;;;5074974;28;20409;-82
2023/07/31 08:03:03;;;;;;;5.83;2.77;;;16.80;99.90;;;;;;5022274;28;20775;-82
2023/07/31 08:05:28;;;;;;;5.10;2.57;;;16.80;99.90;;;;;;5069384;28;20906;-82
2023/07/31 08:07:54;;;;;;;4.25;2.50;;;17.10;99.90;;;;;;5058066;28;20944;-83
2023/07/31 08:10:20;;;;;;;4.05;2.30;;;17.00;99.90;;;;;;5060397;28;20986;-82
2023/07/31 08:12:45;;;;;;;6.47;2.53;;;16.60;99.90;;;;;;5072564;28;20422;-82
2023/07/31 08:15:11;;;;;;;4.07;2.13;;;17.00;99.90;;;;;;5071520;28;20417;-82
2023/07/31 08:17:37;;;;;;;3.85;2.28;;;16.90;99.90;;;;;;5060061;28;20414;-82
2023/07/31 08:20:03;;;;;;;5.00;2.33;;;16.80;99.90;;;;;;5041906;28;20438;-82
2023/07/31 08:22:28;;;;;;;4.57;2.20;;;17.20;99.90;;;;;;5066727;28;20461;-81
2023/07/31 08:24:54;;;;;;;4.80;2.27;;;16.80;99.90;;;;;;5069213;28;20462;-81
2023/07/31 08:27:20;;;;;;;4.70;2.30;;;17.00;99.90;;;;;;5071272;28;20921;-81
2023/07/31 08:29:45;;;;;;;3.80;2.30;;;17.00;99.90;;;;;;5039863;28;20475;-83
2023/07/31 08:32:11;;;;;;;5.55;2.50;;;17.00;99.90;;;;;;5071375;28;20970;-85
2023/07/31 08:34:37;;;;;;;3.90;2.20;;;17.20;99.90;;;;;;5033373;28;20417;-81
2023/07/31 08:37:03;;;;;;;4.20;2.10;;;16.90;99.90;;;;;;5072071;28;20413;-81
2023/07/31 08:39:28;;;;;;;4.35;2.08;;;16.90;99.90;;;;;;5043745;28;20423;-79
2023/07/31 08:41:59;;;;;;;3.50;2.20;;;16.90;99.90;;;;;;5048076;28;20556;-82
2023/07/31 08:44:25;;;;;;;3.80;2.17;;;16.90;99.90;;;;;;5060929;28;20822;-81
2023/07/31 08:46:52;;;;;;;3.72;2.08;;;17.30;99.90;;;;;;5064310;28;20463;-82
2023/07/31 08:49:20;;;;;;;3.42;1.98;;;17.20;99.90;;;;;;5069718;28;20422;-83
2023/07/31 08:51:49;;;;;;;3.20;1.87;;;17.20;99.90;;;;;;5065691;28;20532;-81
2023/07/31 08:54:15;;;;;;;4.43;2.20;;;17.30;99.90;;;;;;5075308;28;20468;-81
2023/07/31 08:56:41;;;;;;;5.32;2.05;;;17.50;99.90;;;;;;5058006;28;20453;-82
2023/07/31 08:59:08;;;;;;;2.95;1.90;;;17.70;99.90;;;;;;5042742;28;20402;-84
2023/07/31 09:01:43;;;;;;;3.28;1.90;;;17.90;99.90;;;;;;5074801;28;20488;-83
2023/07/31 09:04:10;;;;;;;4.38;1.60;;;17.80;99.90;;;;;;5069925;28;20426;-83
2023/07/31 09:06:37;;;;;;;2.67;1.42;;;17.90;99.90;;;;;;5047303;28;20421;-83
2023/07/31 09:09:03;;;;;;;2.13;1.40;;;17.90;99.90;;;;;;5073018;28;21153;-82
2023/07/31 09:11:29;;;;;;;1.52;1.15;;;17.90;99.90;;;;;;5074909;28;20406;-83
2023/07/31 09:13:57;;;;;;;2.13;1.20;;;17.70;99.90;;;;;;5022439;28;20426;-83
2023/07/31 09:16:32;;;;;;;2.10;1.27;;;17.90;99.90;;;;;;5059838;28;20948;-83
2023/07/31 09:18:58;;;;;;;1.95;1.20;;;17.90;99.90;;;;;;5060112;28;20941;-83
2023/07/31 09:21:25;;;;;;;2.30;1.10;;;18.20;99.90;;;;;;5049975;28;21203;-82
2023/07/31 09:23:53;;;;;;;1.88;1.30;;;18.30;99.90;;;;;;5064909;28;20467;-83
2023/07/31 09:26:37;;;;;;;1.98;1.30;;;18.00;99.90;;;;;;5068864;28;20433;-84
2023/07/31 09:29:19;;;;;;;2.00;1.23;;;18.10;99.90;;;;;;5091405;28;20515;-82
2023/07/31 09:31:45;;;;;;;2.05;1.20;;;18.30;99.90;;;;;;5073022;28;20426;-81
2023/07/31 09:34:11;;;;;;;1.48;1.10;;;18.10;99.90;;;;;;5061365;28;20426;-82
2023/07/31 09:36:48;;;;;;;1.70;1.00;;;18.10;99.90;;;;;;5047247;28;20424;-81
2023/07/31 09:39:16;;;;;;;1.73;1.00;;;18.20;99.90;;;;;;5063398;28;20418;-84
2023/07/31 09:41:47;;;;;;;1.13;0.90;;;18.20;99.90;;;;;;5058247;28;20917;-82
2023/07/31 09:44:13;;;;;;;1.20;0.80;;;18.20;99.90;;;;;;5065361;28;20420;-84
2023/07/31 09:46:39;;;;;;;1.65;0.80;;;18.70;99.90;;;;;;5046758;28;20421;-83
2023/07/31 09:49:13;;;;;;;1.00;0.80;;;18.70;99.90;;;;;;5047953;28;20449;-85
2023/07/31 09:51:41;;;;;;;1.00;0.63;;;19.00;99.90;;;;;;5048878;28;20489;-85
2023/07/31 09:54:15;;;;;;;1.05;0.70;;;18.60;99.90;;;;;;5074993;28;20418;-85
2023/07/31 09:56:48;;;;;;;1.27;0.60;;;18.70;99.90;;;;;;5039799;28;20806;-85
2023/07/31 09:59:19;;;;;;;1.93;0.80;;;18.80;99.90;;;;;;5065728;28;20422;-84
2023/07/31 10:01:46;;;;;;;0.80;0.77;;;18.40;99.90;;;;;;5061580;28;20998;-83
2023/07/31 10:04:13;;;;;;;1.05;0.80;;;18.80;99.90;;;;;;5047954;28;20485;-83
2023/07/31 10:06:42;;;;;;;0.70;0.70;;;18.70;99.90;;;;;;5068303;28;20449;-85
2023/07/31 10:09:16;;;;;;;0.90;0.70;;;19.20;99.90;;;;;;5045207;28;21299;-85
2023/07/31 10:11:50;;;;;;;0.68;0.60;;;19.30;99.90;;;;;;5070676;28;20761;-84
2023/07/31 10:14:19;;;;;;;0.77;0.70;;;19.50;99.90;;;;;;5054187;28;20418;-85
2023/07/31 10:16:45;;;;;;;0.88;0.80;;;19.50;99.90;;;;;;5071797;28;20516;-86
2023/07/31 10:19:11;;;;;;;1.30;1.00;;;19.70;99.90;;;;;;5068288;28;20418;-84
2023/07/31 10:21:37;;;;;;;0.50;0.50;;;19.40;99.90;;;;;;5073459;28;20452;-84
2023/07/31 10:24:07;;;;;;;0.50;0.50;;;19.30;99.90;;;;;;5052969;28;20425;-86
2023/07/31 10:26:33;;;;;;;2.30;0.70;;;18.80;99.90;;;;;;5054747;28;20920;-85
2023/07/31 10:29:00;;;;;;;1.40;0.50;;;18.90;99.90;;;;;;5073964;28;20882;-84
2023/07/31 10:31:28;;;;;;;1.20;0.40;;;19.90;99.90;;;;;;5072832;28;21042;-83
2023/07/31 10:33:55;;;;;;;0.45;0.45;;;18.40;99.90;;;;;;5070201;28;20468;-82
2023/07/31 10:36:21;;;;;;;1.15;0.60;;;18.40;99.90;;;;;;5063327;28;20423;-83
2023/07/31 10:38:50;;;;;;;0.50;0.50;;;18.80;99.90;;;;;;5072069;28;20782;-84
2023/07/31 10:41:16;;;;;;;0.50;0.50;;;18.60;99.90;;;;;;5049506;28;20436;-84
2023/07/31 10:43:42;;;;;;;0.40;0.40;;;18.50;99.90;;;;;;5057161;28;20567;-83
2023/07/31 10:46:13;;;;;;;1.38;0.50;;;18.40;99.90;;;;;;5073611;28;20513;-83
2023/07/31 10:48:41;;;;;;;0.50;0.50;;;18.30;99.90;;;;;;5049960;28;20802;-83
2023/07/31 10:51:13;;;;;;;0.60;0.60;;;18.40;99.90;;;;;;5068284;28;20790;-83
2023/07/31 10:53:40;;;;;;;1.08;0.68;;;18.50;99.90;;;;;;5052295;28;20430;-84
2023/07/31 10:56:08;;;;;;;2.38;0.80;;;18.60;99.90;;;;;;5070442;28;20457;-84
2023/07/31 10:58:35;;;;;;;0.80;0.60;;;17.90;99.90;;;;;;5076954;28;20416;-85
2023/07/31 11:01:05;;;;;;;1.33;0.80;;;18.40;99.90;;;;;;5041964;28;20430;-84
2023/07/31 11:03:49;;;;;;;0.70;0.70;;;18.40;99.90;;;;;;5056187;28;20421;-85
2023/07/31 11:06:16;;;;;;;0.80;0.80;;;18.50;99.90;;;;;;5062681;28;20410;-85
2023/07/31 11:08:49;;;;;;;1.15;0.95;;;18.40;99.90;;;;;;5077582;28;20412;-85
2023/07/31 11:11:17;;;;;;;2.20;0.90;;;18.10;99.90;;;;;;5053957;28;20417;-85
2023/07/31 11:13:52;;;;;;;1.65;0.90;;;18.60;99.90;;;;;;5072566;28;20977;-84
2023/07/31 11:16:19;;;;;;;1.50;0.80;;;18.50;99.90;;;;;;5071033;28;20422;-85
2023/07/31 11:18:48;;;;;;;1.73;0.90;;;18.60;99.90;;;;;;5049020;28;20422;-86
2023/07/31 11:21:15;;;;;;;1.20;0.90;;;18.80;99.90;;;;;;5058254;28;20432;-86
2023/07/31 11:23:45;;;;;;;1.02;0.90;;;18.50;99.90;;;;;;5060612;28;20938;-85
2023/07/31 11:26:11;;;;;;;2.13;1.20;;;18.50;99.90;;;;;;5044092;28;20418;-86
2023/07/31 11:28:38;;;;;;;2.30;1.25;;;18.90;99.90;;;;;;5054760;28;20411;-86
2023/07/31 11:31:04;;;;;;;1.97;1.10;;;18.70;99.90;;;;;;5036002;28;20425;-86
2023/07/31 11:33:30;;;;;;;3.60;1.50;;;18.80;99.90;;;;;;5047864;28;20767;-87
2023/07/31 11:35:56;;;;;;;2.80;1.80;;;18.80;99.90;;;;;;5057662;28;20411;-86
2023/07/31 11:38:30;;;;;;;3.83;1.90;;;18.50;99.90;;;;;;5047836;28;20419;-86
2023/07/31 11:41:02;;;;;;;3.80;2.28;;;19.10;99.90;;;;;;5068959;28;20407;-86
2023/07/31 11:43:28;;;;;;;3.88;2.30;;;19.00;99.90;;;;;;5039323;28;20420;-87
2023/07/31 11:46:02;;;;;;;3.40;2.00;;;19.10;99.90;;;;;;5056047;28;20464;-85
2023/07/31 11:48:35;;;;;;;3.50;2.00;;;19.70;99.90;;;;;;5052166;28;20497;-85
2023/07/31 11:51:03;;;;;;;4.22;2.05;;;19.90;99.90;;;;;;5038522;28;20903;-85
2023/07/31 11:53:41;;;;;;;3.03;1.80;;;20.30;99.90;;;;;;5053676;28;20417;-84
2023/07/31 11:56:11;;;;;;;3.08;1.70;;;20.10;99.90;;;;;;5052160;28;20501;-83
2023/07/31 11:58:37;;;;;;;1.92;1.35;;;20.00;99.90;;;;;;5075285;28;20917;-83
2023/07/31 12:01:04;;;;;;;2.70;1.30;;;20.10;99.90;;;;;;5061694;28;20422;-84
2023/07/31 12:03:32;;;;;;;1.03;0.93;;;20.30;99.90;;;;;;5053226;28;20427;-82
2023/07/31 12:05:59;;;;;;;2.47;1.20;;;20.30;99.90;;;;;;5044211;28;20944;-83
2023/07/31 12:08:25;;;;;;;2.58;1.60;;;20.40;99.90;;;;;;5070512;28;20426;-83
2023/07/31 12:10:54;;;;;;;3.03;1.48;;;20.30;99.90;;;;;;5048047;28;20441;-82
2023/07/31 12:13:26;;;;;;;4.15;1.77;;;20.10;99.90;;;;;;5060480;28;20421;-83
2023/07/31 12:15:57;;;;;;;4.82;1.83;;;20.00;99.90;;;;;;5069692;28;20412;-83
2023/07/31 12:18:24;;;;;;;5.80;2.10;;;20.00;99.90;;;;;;5072314;28;20425;-83
2023/07/31 12:20:56;;;;;;;4.85;1.95;;;20.00;99.90;;;;;;5064466;28;20970;-83
2023/07/31 12:23:30;;;;;;;5.13;2.40;;;20.10;99.90;;;;;;5057634;28;20869;-83
2023/07/31 12:26:11;;;;;;;6.43;2.80;;;19.80;99.90;;;;;;5056782;28;20819;-86
2023/07/31 12:28:42;;;;;;;7.10;2.70;;;19.60;99.90;;;;;;5069896;28;20895;-85
2023/07/31 12:31:29;;;;;;;6.13;2.92;;;19.30;99.90;;;;;;5039107;28;20428;-83
2023/07/31 12:33:55;;;;;;;6.15;3.05;;;19.00;99.90;;;;;;5039606;28;20804;-84
2023/07/31 12:36:24;;;;;;;7.47;3.25;;;19.10;99.90;;;;;;5054654;28;20440;-83
2023/07/31 12:38:53;;;;;;;8.27;2.78;;;18.70;99.90;;;;;;5057388;28;20427;-84
2023/07/31 12:41:21;;;;;;;6.97;3.33;;;18.70;99.90;;;;;;5073446;28;20501;-82
2023/07/31 12:43:47;;;;;;;7.95;3.10;;;18.50;99.90;;;;;;5021851;28;20459;-85
2023/07/31 12:46:14;;;;;;;9.75;3.67;;;18.30;99.90;;;;;;5051672;28;20949;-84